createdAt,value
2019-04-28T00:00:12.789Z,1.70
2019-04-28T00:02:44.313Z,1.90
2019-04-28T00:05:14.673Z,2.40
2019-04-28T00:07:44.678Z,1.80
2019-04-28T00:10:14.957Z,2.27
2019-04-28T00:12:44.892Z,1.93
2019-04-28T00:15:15.934Z,2.03
2019-04-28T00:17:45.847Z,2.00
2019-04-28T00:20:21.380Z,2.07
2019-04-28T00:22:59.216Z,1.70
2019-04-28T00:25:31.206Z,1.80
2019-04-28T00:28:01.695Z,1.80
2019-04-28T00:30:31.755Z,1.63
2019-04-28T00:33:01.863Z,1.70
2019-04-28T00:35:35.096Z,1.60
2019-04-28T00:38:03.704Z,1.57
2019-04-28T00:40:33.606Z,2.10
2019-04-28T00:43:03.464Z,1.90
2019-04-28T00:45:33.407Z,1.77
2019-04-28T00:48:03.442Z,1.77
2019-04-28T00:50:33.415Z,1.60
2019-04-28T00:53:03.339Z,1.87
2019-04-28T00:55:34.351Z,1.70
2019-04-28T00:58:04.361Z,1.50
2019-04-28T01:00:35.869Z,1.57
2019-04-28T01:03:05.798Z,1.50
2019-04-28T01:05:35.703Z,1.23
2019-04-28T01:08:05.932Z,1.30
2019-04-28T01:10:35.772Z,1.30
2019-04-28T01:13:06.006Z,1.10
2019-04-28T01:15:54.018Z,1.10
2019-04-28T01:18:29.966Z,1.17
2019-04-28T01:20:59.923Z,1.40
2019-04-28T01:23:30.292Z,1.33
2019-04-28T01:26:00.256Z,1.50
2019-04-28T01:28:30.091Z,1.50
2019-04-28T01:31:04.352Z,1.57
2019-04-28T01:33:44.443Z,1.30
2019-04-28T01:36:14.317Z,1.93
2019-04-28T01:38:44.286Z,1.17
2019-04-28T01:41:14.157Z,1.60
2019-04-28T01:43:44.019Z,1.20
2019-04-28T01:46:13.861Z,1.07
2019-04-28T01:48:43.805Z,1.70
2019-04-28T01:51:13.742Z,1.70
2019-04-28T01:53:43.926Z,1.33
2019-04-28T01:56:13.780Z,1.80
2019-04-28T01:58:43.690Z,1.33
2019-04-28T02:01:13.537Z,1.60
2019-04-28T02:03:43.525Z,1.70
2019-04-28T02:06:13.444Z,1.60
2019-04-28T02:08:43.290Z,1.77
2019-04-28T02:11:13.362Z,1.67
2019-04-28T02:13:43.217Z,2.03
2019-04-28T02:16:13.145Z,2.13
2019-04-28T02:18:43.065Z,1.70
2019-04-28T02:21:14.634Z,1.70
2019-04-28T02:23:44.496Z,1.70
2019-04-28T02:26:14.417Z,1.60
2019-04-28T02:28:44.344Z,1.60
2019-04-28T02:31:14.193Z,2.13
2019-04-28T02:33:44.125Z,1.90
2019-04-28T02:36:14.186Z,1.90
2019-04-28T02:38:44.130Z,2.03
2019-04-28T02:41:14.088Z,2.00
2019-04-28T02:43:43.945Z,1.90
2019-04-28T02:46:14.227Z,2.23
2019-04-28T02:48:45.024Z,1.87
2019-04-28T02:51:20.878Z,1.73
2019-04-28T02:53:51.829Z,2.07
2019-04-28T02:56:21.703Z,2.03
2019-04-28T02:58:51.585Z,1.60
2019-04-28T03:01:26.136Z,2.73
2019-04-28T03:03:53.163Z,1.87
2019-04-28T03:06:23.068Z,1.80
2019-04-28T03:08:52.932Z,2.23
2019-04-28T03:11:22.847Z,2.20
2019-04-28T03:13:52.837Z,2.33
2019-04-28T03:16:23.120Z,2.30
2019-04-28T03:18:53.359Z,2.30
2019-04-28T03:21:23.264Z,2.00
2019-04-28T03:23:53.193Z,2.30
2019-04-28T03:26:24.669Z,2.17
2019-04-28T03:29:00.968Z,2.27
2019-04-28T03:32:01.627Z,2.43
2019-04-28T03:34:04.707Z,2.50
2019-04-28T03:36:35.022Z,2.73
2019-04-28T03:39:07.023Z,2.40
2019-04-28T03:41:40.334Z,2.50
2019-04-28T03:44:11.373Z,2.30
2019-04-28T03:46:42.324Z,2.80
2019-04-28T03:49:13.839Z,2.70
2019-04-28T03:51:43.759Z,2.43
2019-04-28T03:54:13.692Z,2.97
2019-04-28T03:56:43.549Z,2.80
2019-04-28T03:59:13.397Z,2.30
2019-04-28T04:01:55.617Z,2.93
2019-04-28T04:04:14.784Z,2.90
2019-04-28T04:06:44.629Z,2.87
2019-04-28T04:09:14.494Z,2.57
2019-04-28T04:11:50.881Z,2.90
2019-04-28T04:14:21.990Z,3.10
2019-04-28T04:16:53.550Z,2.90
2019-04-28T04:19:23.491Z,2.80
2019-04-28T04:21:53.396Z,2.70
2019-04-28T04:24:23.341Z,3.30
2019-04-28T04:26:53.248Z,3.17
2019-04-28T04:29:23.164Z,2.83
2019-04-28T04:32:09.437Z,2.80
2019-04-28T04:34:25.553Z,2.90
2019-04-28T04:36:55.426Z,2.60
2019-04-28T04:39:25.352Z,2.77
2019-04-28T04:41:55.243Z,2.83
2019-04-28T04:44:25.104Z,3.07
2019-04-28T04:46:54.955Z,3.10
2019-04-28T04:49:24.935Z,3.00
2019-04-28T04:51:54.979Z,3.20
2019-04-28T04:54:24.836Z,3.00
2019-04-28T04:56:54.790Z,2.80
2019-04-28T04:59:24.703Z,2.60
2019-04-28T05:02:26.702Z,3.37
2019-04-28T05:04:56.255Z,2.93
2019-04-28T05:07:26.124Z,2.93
2019-04-28T05:09:56.206Z,3.43
2019-04-28T05:12:26.236Z,3.10
2019-04-28T05:14:56.252Z,2.90
2019-04-28T05:17:26.224Z,3.00
2019-04-28T05:19:56.209Z,3.00
2019-04-28T05:22:27.708Z,3.30
2019-04-28T05:25:02.299Z,3.23
2019-04-28T05:27:32.623Z,3.07
2019-04-28T05:30:05.141Z,3.23
2019-04-28T05:32:44.704Z,3.50
2019-04-28T05:35:06.909Z,2.90
2019-04-28T05:37:36.754Z,3.00
2019-04-28T05:40:07.005Z,2.90
2019-04-28T05:42:39.397Z,3.37
2019-04-28T05:45:10.346Z,3.20
2019-04-28T05:47:40.888Z,3.60
2019-04-28T05:50:15.551Z,3.07
2019-04-28T05:52:56.194Z,3.63
2019-04-28T05:55:33.477Z,3.10
2019-04-28T05:58:05.019Z,3.30
2019-04-28T06:00:39.958Z,3.20
2019-04-28T06:03:11.447Z,3.10
2019-04-28T06:05:41.577Z,3.03
2019-04-28T06:08:20.215Z,2.90
2019-04-28T06:10:50.419Z,3.10
2019-04-28T06:13:20.432Z,3.03
2019-04-28T06:15:50.392Z,3.30
2019-04-28T06:18:20.668Z,2.97
2019-04-28T06:20:50.619Z,3.30
2019-04-28T06:23:20.461Z,3.20
2019-04-28T06:25:50.319Z,2.80
2019-04-28T06:28:20.237Z,3.10
2019-04-28T06:30:50.411Z,3.03
2019-04-28T06:33:20.446Z,3.20
2019-04-28T06:35:50.335Z,4.13
2019-04-28T06:38:20.200Z,3.47
2019-04-28T06:40:50.113Z,2.77
2019-04-28T06:43:20.035Z,2.97
2019-04-28T06:45:49.900Z,3.10
2019-04-28T06:48:19.825Z,3.27
2019-04-28T06:50:49.801Z,4.00
2019-04-28T06:53:20.251Z,3.60
2019-04-28T06:55:50.186Z,3.13
2019-04-28T06:58:20.122Z,2.63
2019-04-28T07:00:49.964Z,2.90
2019-04-28T07:03:23.238Z,3.30
2019-04-28T07:05:51.469Z,3.10
2019-04-28T07:08:21.501Z,3.63
2019-04-28T07:10:51.407Z,2.77
2019-04-28T07:13:21.278Z,2.87
2019-04-28T07:15:51.263Z,2.93
2019-04-28T07:18:21.477Z,2.87
2019-04-28T07:20:53.024Z,3.23
2019-04-28T07:23:22.945Z,2.90
2019-04-28T07:25:52.991Z,2.90
2019-04-28T07:28:24.691Z,2.97
2019-04-28T07:30:54.587Z,2.70
2019-04-28T07:33:35.539Z,2.63
2019-04-28T07:35:56.077Z,3.43
2019-04-28T07:38:26.088Z,4.33
2019-04-28T07:40:55.941Z,3.20
2019-04-28T07:43:25.800Z,2.50
2019-04-28T07:45:55.661Z,2.57
2019-04-28T07:48:25.665Z,2.47
2019-04-28T07:50:56.270Z,2.57
2019-04-28T07:53:33.579Z,2.70
2019-04-28T07:56:03.595Z,2.53
2019-04-28T07:58:33.537Z,2.90
2019-04-28T08:01:05.208Z,2.90
2019-04-28T08:03:35.103Z,2.70
2019-04-28T08:06:05.265Z,2.47
2019-04-28T08:08:35.145Z,2.30
2019-04-28T08:11:05.165Z,2.57
2019-04-28T08:13:36.138Z,2.67
2019-04-28T08:16:06.072Z,3.03
2019-04-28T08:18:35.926Z,3.00
2019-04-28T08:21:05.905Z,3.13
2019-04-28T08:23:46.566Z,4.00
2019-04-28T08:26:08.306Z,2.90
2019-04-28T08:28:38.249Z,3.70
2019-04-28T08:31:09.701Z,2.73
2019-04-28T08:33:41.179Z,2.83
2019-04-28T08:36:11.013Z,3.40
2019-04-28T08:38:40.959Z,3.10
2019-04-28T08:41:10.877Z,3.67
2019-04-28T08:43:40.816Z,3.17
2019-04-28T08:46:11.300Z,3.03
2019-04-28T08:48:41.356Z,2.87
2019-04-28T08:51:11.237Z,3.40
2019-04-28T08:53:41.164Z,3.30
2019-04-28T08:56:11.110Z,3.60
2019-04-28T08:58:41.040Z,3.37
2019-04-28T09:01:10.929Z,3.37
2019-04-28T09:03:40.931Z,2.73
2019-04-28T09:06:11.797Z,3.60
2019-04-28T09:08:41.728Z,3.10
2019-04-28T09:11:11.554Z,3.10
2019-04-28T09:13:43.783Z,2.77
2019-04-28T09:16:13.245Z,2.90
2019-04-28T09:18:43.156Z,2.53
2019-04-28T09:21:13.039Z,2.47
2019-04-28T09:23:42.983Z,3.27
2019-04-28T09:26:12.868Z,3.70
2019-04-28T09:28:42.807Z,3.37
2019-04-28T09:31:12.732Z,3.07
2019-04-28T09:33:42.600Z,2.70
2019-04-28T09:36:12.448Z,2.70
2019-04-28T09:38:42.324Z,2.47
2019-04-28T09:41:12.231Z,3.10
2019-04-28T09:43:49.231Z,2.33
2019-04-28T09:46:20.615Z,2.40
2019-04-28T09:48:50.577Z,2.57
2019-04-28T09:51:20.500Z,2.90
2019-04-28T09:53:50.419Z,3.10
2019-04-28T09:56:20.349Z,3.30
2019-04-28T09:58:50.183Z,2.47
2019-04-28T10:01:20.100Z,2.83
2019-04-28T10:03:50.145Z,2.50
2019-04-28T10:06:20.420Z,2.40
2019-04-28T10:08:50.297Z,2.20
2019-04-28T10:11:29.953Z,2.30
2019-04-28T10:13:51.861Z,2.10
2019-04-28T10:16:21.965Z,2.97
2019-04-28T10:18:52.960Z,2.60
2019-04-28T10:21:22.883Z,2.53
2019-04-28T10:23:52.748Z,2.53
2019-04-28T10:26:22.681Z,2.40
2019-04-28T10:28:52.537Z,2.23
2019-04-28T10:31:22.482Z,2.07
2019-04-28T10:33:54.035Z,2.13
2019-04-28T10:36:23.968Z,2.20
2019-04-28T10:38:55.502Z,3.47
2019-04-28T10:41:32.799Z,2.20
2019-04-28T10:44:02.768Z,2.73
2019-04-28T10:46:32.638Z,2.20
2019-04-28T10:49:02.738Z,2.50
2019-04-28T10:51:32.639Z,2.93
2019-04-28T10:54:02.576Z,3.30
2019-04-28T10:56:32.418Z,4.13
2019-04-28T10:59:02.397Z,4.50
2019-04-28T11:01:32.317Z,5.60
2019-04-28T11:04:09.592Z,5.40
2019-04-28T11:06:40.584Z,6.63
2019-04-28T11:09:15.160Z,5.53
2019-04-28T11:11:45.327Z,6.77
2019-04-28T11:14:15.216Z,7.90
2019-04-28T11:16:45.204Z,6.20
2019-04-28T11:19:15.156Z,8.93
2019-04-28T11:21:45.067Z,7.20
2019-04-28T11:24:15.008Z,7.33
2019-04-28T11:26:44.924Z,10.77
2019-04-28T11:29:14.787Z,6.63
2019-04-28T11:31:44.648Z,4.93
2019-04-28T11:34:16.242Z,5.37
2019-04-28T11:36:47.257Z,6.07
2019-04-28T11:39:18.967Z,5.03
2019-04-28T11:41:48.844Z,5.00
2019-04-28T11:44:18.686Z,5.57
2019-04-28T11:46:48.624Z,6.70
2019-04-28T11:49:18.549Z,6.43
2019-04-28T11:51:48.414Z,4.03
2019-04-28T11:54:18.251Z,2.83
2019-04-28T11:56:48.123Z,2.67
2019-04-28T11:59:18.332Z,2.77
2019-04-28T12:01:48.249Z,2.70
2019-04-28T12:04:19.346Z,3.30
2019-04-28T12:06:49.249Z,2.33
2019-04-28T12:09:20.824Z,2.20
2019-04-28T12:11:53.295Z,2.23
2019-04-28T12:14:27.587Z,2.73
2019-04-28T12:17:02.064Z,3.70
2019-04-28T12:19:39.724Z,3.03
2019-04-28T12:22:09.666Z,2.60
2019-04-28T12:24:40.666Z,2.60
2019-04-28T12:27:10.519Z,2.77
2019-04-28T12:29:41.957Z,2.13
2019-04-28T12:32:11.893Z,2.90
2019-04-28T12:34:41.859Z,2.83
2019-04-28T12:37:11.809Z,2.60
2019-04-28T12:39:41.842Z,2.47
2019-04-28T12:42:11.772Z,1.83
2019-04-28T12:44:43.219Z,3.13
2019-04-28T12:47:13.115Z,3.00
2019-04-28T12:49:47.477Z,2.50
2019-04-28T12:52:17.474Z,2.10
2019-04-28T12:54:47.636Z,2.07
2019-04-28T12:57:17.561Z,2.23
2019-04-28T12:59:49.163Z,1.83
2019-04-28T13:02:20.762Z,2.30
2019-04-28T13:04:52.358Z,2.80
2019-04-28T13:07:22.256Z,2.73
2019-04-28T13:09:52.118Z,3.23
2019-04-28T13:12:22.077Z,2.87
2019-04-28T13:14:51.976Z,2.00
2019-04-28T13:17:22.919Z,2.10
2019-04-28T13:19:52.864Z,1.87
2019-04-28T13:22:22.728Z,2.70
2019-04-28T13:24:52.694Z,2.40
2019-04-28T13:27:22.629Z,2.60
2019-04-28T13:29:53.703Z,1.80
2019-04-28T13:32:23.547Z,1.63
2019-04-28T13:34:53.488Z,1.93
2019-04-28T13:37:23.429Z,1.90
2019-04-28T13:39:55.016Z,1.80
2019-04-28T13:42:24.907Z,2.17
2019-04-28T13:45:02.609Z,2.07
2019-04-28T13:47:33.859Z,1.87
2019-04-28T13:50:07.149Z,2.03
2019-04-28T13:52:37.099Z,1.53
2019-04-28T13:55:12.596Z,1.90
2019-04-28T13:57:42.539Z,1.80
2019-04-28T14:00:16.797Z,2.10
2019-04-28T14:02:57.653Z,2.13
2019-04-28T14:05:29.207Z,1.63
2019-04-28T14:07:59.150Z,1.80
2019-04-28T14:10:29.039Z,1.83
2019-04-28T14:12:58.918Z,2.00
2019-04-28T14:15:28.846Z,1.60
2019-04-28T14:17:58.791Z,1.93
2019-04-28T14:20:28.709Z,1.50
2019-04-28T14:22:58.612Z,1.87
2019-04-28T14:25:28.502Z,1.83
2019-04-28T14:27:58.445Z,1.50
2019-04-28T14:30:28.303Z,1.90
2019-04-28T14:32:59.232Z,1.80
2019-04-28T14:35:29.234Z,1.87
2019-04-28T14:37:59.088Z,1.60
2019-04-28T14:40:29.029Z,1.60
2019-04-28T14:42:58.885Z,1.70
2019-04-28T14:45:29.775Z,1.90
2019-04-28T14:47:59.759Z,1.43
2019-04-28T14:50:29.737Z,1.73
2019-04-28T14:52:59.654Z,1.80
2019-04-28T14:55:29.598Z,1.70
2019-04-28T14:57:59.506Z,1.80
2019-04-28T15:00:31.173Z,2.00
2019-04-28T15:03:05.103Z,2.20
2019-04-28T15:05:42.565Z,2.27
2019-04-28T15:08:16.833Z,2.50
2019-04-28T15:11:01.095Z,1.80
2019-04-28T15:13:31.119Z,1.60
2019-04-28T15:16:01.127Z,2.17
2019-04-28T15:18:31.144Z,1.90
2019-04-28T15:21:02.012Z,1.90
2019-04-28T15:23:31.849Z,1.70
2019-04-28T15:26:01.716Z,1.43
2019-04-28T15:28:31.656Z,1.93
2019-04-28T15:31:01.504Z,1.40
2019-04-28T15:33:31.360Z,2.20
2019-04-28T15:36:01.228Z,2.10
2019-04-28T15:38:31.065Z,1.83
2019-04-28T15:41:00.936Z,1.63
2019-04-28T15:43:30.850Z,1.97
2019-04-28T15:46:00.780Z,2.53
2019-04-28T15:48:31.179Z,1.87
2019-04-28T15:51:01.105Z,1.60
2019-04-28T15:53:32.355Z,2.10
2019-04-28T15:56:06.752Z,2.53
2019-04-28T15:58:38.130Z,2.20
2019-04-28T16:01:08.371Z,1.57
2019-04-28T16:03:38.293Z,1.90
2019-04-28T16:06:08.248Z,2.17
2019-04-28T16:08:38.152Z,1.90
2019-04-28T16:11:08.018Z,2.10
2019-04-28T16:13:37.942Z,1.87
2019-04-28T16:16:08.973Z,1.70
2019-04-28T16:18:40.435Z,1.40
2019-04-28T16:21:10.271Z,2.07
2019-04-28T16:23:40.151Z,1.50
2019-04-28T16:26:10.066Z,1.20
2019-04-28T16:28:39.929Z,1.77
2019-04-28T16:31:09.807Z,1.97
2019-04-28T16:33:39.728Z,1.60
2019-04-28T16:36:09.759Z,1.43
2019-04-28T16:38:39.834Z,2.10
2019-04-28T16:41:12.376Z,2.23
2019-04-28T16:43:45.921Z,2.07
2019-04-28T16:46:15.841Z,1.30
2019-04-28T16:48:45.692Z,2.10
2019-04-28T16:51:15.562Z,1.60
2019-04-28T16:53:45.404Z,1.70
2019-04-28T16:56:22.670Z,1.70
2019-04-28T16:59:10.756Z,1.40
2019-04-28T17:01:51.396Z,1.93
2019-04-28T17:04:21.450Z,1.90
2019-04-28T17:06:51.404Z,1.67
2019-04-28T17:09:22.127Z,1.57
2019-04-28T17:11:52.081Z,1.57
2019-04-28T17:14:21.987Z,1.70
2019-04-28T17:16:51.861Z,1.80
2019-04-28T17:19:21.767Z,1.33
2019-04-28T17:21:51.644Z,1.50
2019-04-28T17:24:21.488Z,1.40
2019-04-28T17:26:51.362Z,1.50
2019-04-28T17:29:21.276Z,1.40
2019-04-28T17:31:51.210Z,1.83
2019-04-28T17:34:21.056Z,1.77
2019-04-28T17:36:51.001Z,1.80
2019-04-28T17:39:22.740Z,1.90
2019-04-28T17:41:53.113Z,1.57
2019-04-28T17:44:23.232Z,1.63
2019-04-28T17:46:53.298Z,1.57
2019-04-28T17:49:24.813Z,1.77
2019-04-28T17:51:55.064Z,1.70
2019-04-28T17:54:25.277Z,1.30
2019-04-28T17:57:07.485Z,1.60
2019-04-28T17:59:37.832Z,1.87
2019-04-28T18:02:26.079Z,1.30
2019-04-28T18:05:00.874Z,2.00
2019-04-28T18:07:32.771Z,1.47
2019-04-28T18:10:03.376Z,1.67
2019-04-28T18:12:33.378Z,1.60
2019-04-28T18:15:08.905Z,1.83
2019-04-28T18:17:56.095Z,1.90
2019-04-28T18:20:26.277Z,2.20
2019-04-28T18:22:56.124Z,2.27
2019-04-28T18:25:25.979Z,2.07
2019-04-28T18:27:55.829Z,3.00
2019-04-28T18:30:27.421Z,1.30
2019-04-28T18:33:01.656Z,2.53
2019-04-28T18:35:39.359Z,2.37
2019-04-28T18:38:13.767Z,2.60
2019-04-28T18:40:57.423Z,2.67
2019-04-28T18:43:45.178Z,2.10
2019-04-28T18:46:17.502Z,2.23
2019-04-28T18:48:47.437Z,2.07
2019-04-28T18:51:17.475Z,2.57
2019-04-28T18:53:47.425Z,2.43
2019-04-28T18:56:17.293Z,2.40
2019-04-28T18:58:47.305Z,2.13
2019-04-28T19:01:34.215Z,2.37
2019-04-28T19:04:04.265Z,2.57
2019-04-28T19:06:34.121Z,2.73
2019-04-28T19:09:19.598Z,2.70
2019-04-28T19:11:54.055Z,2.73
2019-04-28T19:14:31.164Z,3.30
2019-04-28T19:17:02.767Z,2.47
2019-04-28T19:19:34.311Z,2.73
2019-04-28T19:22:04.404Z,2.63
2019-04-28T19:24:34.407Z,2.80
2019-04-28T19:27:04.427Z,3.07
2019-04-28T19:29:34.463Z,3.13
2019-04-28T19:32:04.843Z,2.90
2019-04-28T19:34:34.754Z,2.80
2019-04-28T19:37:04.721Z,3.83
2019-04-28T19:39:35.318Z,3.40
2019-04-28T19:42:05.711Z,4.30
2019-04-28T19:44:36.803Z,3.47
2019-04-28T19:47:07.394Z,3.17
2019-04-28T19:49:37.769Z,23.97
2019-04-28T19:52:08.198Z,7.10
2019-04-28T19:54:40.469Z,3.33
2019-04-28T19:57:21.239Z,3.47
2019-04-28T20:00:09.438Z,4.10
2019-04-28T20:02:42.799Z,5.53
2019-04-28T20:05:13.762Z,5.90
2019-04-28T20:07:45.124Z,6.37
2019-04-28T20:10:17.679Z,7.20
2019-04-28T20:12:48.946Z,5.90
2019-04-28T20:15:20.711Z,5.40
2019-04-28T20:17:52.080Z,5.13
2019-04-28T20:20:23.508Z,4.70
2019-04-28T20:22:53.665Z,5.00
2019-04-28T20:25:25.295Z,4.93
2019-04-28T20:27:55.968Z,5.13
2019-04-28T20:30:26.460Z,4.80
2019-04-28T20:33:06.982Z,6.37
2019-04-28T20:35:31.873Z,7.27
2019-04-28T20:38:04.621Z,6.53
2019-04-28T20:40:37.492Z,5.67
2019-04-28T20:43:10.591Z,5.87
2019-04-28T20:45:40.615Z,6.90
2019-04-28T20:48:10.548Z,7.07
2019-04-28T20:50:40.615Z,5.87
2019-04-28T20:53:10.558Z,5.73
2019-04-28T20:55:40.546Z,5.60
2019-04-28T20:58:10.471Z,5.33
2019-04-28T21:00:40.393Z,5.50
2019-04-28T21:03:10.413Z,5.23
2019-04-28T21:05:40.424Z,4.37
2019-04-28T21:08:10.569Z,4.40
2019-04-28T21:10:40.519Z,4.50
2019-04-28T21:13:10.496Z,5.03
2019-04-28T21:15:40.436Z,4.87
2019-04-28T21:18:10.337Z,4.70
2019-04-28T21:20:40.192Z,4.97
2019-04-28T21:23:10.040Z,4.87
2019-04-28T21:25:39.980Z,4.90
2019-04-28T21:28:09.829Z,5.10
2019-04-28T21:30:39.757Z,4.67
2019-04-28T21:33:09.598Z,4.83
2019-04-28T21:35:39.550Z,4.77
2019-04-28T21:38:09.466Z,4.80
2019-04-28T21:40:40.696Z,5.00
2019-04-28T21:43:15.158Z,4.80
2019-04-28T21:46:03.151Z,4.63
2019-04-28T21:48:34.708Z,4.60
2019-04-28T21:51:04.700Z,4.50
2019-04-28T21:53:34.542Z,5.10
2019-04-28T21:56:04.468Z,4.90
2019-04-28T21:58:34.386Z,5.40
2019-04-28T22:01:05.311Z,4.93
2019-04-28T22:03:36.252Z,4.60
2019-04-28T22:06:06.532Z,5.50
2019-04-28T22:08:36.466Z,4.73
2019-04-28T22:11:06.375Z,5.30
2019-04-28T22:13:36.234Z,5.50
2019-04-28T22:16:06.080Z,5.43
2019-04-28T22:18:36.072Z,4.97
2019-04-28T22:21:06.020Z,5.50
2019-04-28T22:23:37.595Z,5.33
2019-04-28T22:26:09.275Z,5.60
2019-04-28T22:28:40.357Z,5.90
2019-04-28T22:31:11.232Z,6.30
2019-04-28T22:33:41.109Z,5.37
2019-04-28T22:36:11.017Z,5.50
2019-04-28T22:38:40.863Z,5.17
2019-04-28T22:41:10.712Z,4.50
2019-04-28T22:43:40.698Z,4.80
2019-04-28T22:46:10.630Z,4.50
2019-04-28T22:48:40.556Z,4.60
2019-04-28T22:51:10.404Z,4.67
2019-04-28T22:53:40.265Z,4.90
2019-04-28T22:56:23.991Z,4.47
2019-04-28T22:59:11.736Z,4.23
2019-04-28T23:01:43.224Z,4.57
2019-04-28T23:04:17.394Z,4.30
2019-04-28T23:06:47.311Z,4.13
2019-04-28T23:09:18.881Z,4.83
2019-04-28T23:11:48.889Z,4.33
2019-04-28T23:14:18.742Z,4.77
2019-04-28T23:16:48.575Z,4.60
2019-04-28T23:19:20.069Z,4.70
2019-04-28T23:21:54.271Z,4.80
2019-04-28T23:24:24.258Z,4.50
2019-04-28T23:26:54.086Z,4.17
2019-04-28T23:29:24.002Z,3.93
2019-04-28T23:31:53.938Z,4.80
2019-04-28T23:34:23.868Z,5.73
2019-04-28T23:36:53.737Z,4.93
2019-04-28T23:39:23.648Z,5.50
2019-04-28T23:41:58.125Z,5.30
2019-04-28T23:44:28.061Z,5.43
2019-04-28T23:46:59.052Z,5.20
2019-04-28T23:49:29.537Z,5.17
2019-04-28T23:52:16.456Z,4.87
2019-04-28T23:54:50.799Z,4.60
2019-04-28T23:57:20.644Z,6.00
2019-04-28T23:59:50.493Z,4.53
